Terminal Aerodrome Forecast
Issued by NWS

Home | Current Version | Previous Version | Text Only | Print | Product List | Glossary On
Versions: 1 2 3 4 5 6 7 8 9 10 11 12 13 14 15
000
FTUS46 KMTR 192339
TAFSJC
TAF
KSJC 192339Z 2000/2024 31005KT P6SM BKN200
     FM200400 VRB03KT P6SM FEW040 BKN150
     FM200800 14004KT P6SM SCT035 OVC100
     FM201500 15008KT P6SM FEW030 OVC050
     FM201800 13005KT P6SM BKN050 OVC080=

USA.gov is the U.S. government's official web portal to all federal, state and local government web resources and services.